createdAt,value
2017-09-26T00:01:25.387Z,93.20
2017-09-26T00:03:52.830Z,93.30
2017-09-26T00:06:20.262Z,93.30
2017-09-26T00:08:47.691Z,93.40
2017-09-26T00:11:15.141Z,93.40
2017-09-26T00:13:42.598Z,93.30
2017-09-26T00:16:10.037Z,93.50
2017-09-26T00:18:37.473Z,93.50
2017-09-26T00:21:04.942Z,93.50
2017-09-26T00:23:32.392Z,93.50
2017-09-26T00:25:59.851Z,93.30
2017-09-26T00:28:27.305Z,93.40
2017-09-26T00:30:54.761Z,93.30
2017-09-26T00:33:22.201Z,93.30
2017-09-26T00:35:50.093Z,93.30
2017-09-26T00:38:17.555Z,93.40
2017-09-26T00:40:44.998Z,93.40
2017-09-26T00:43:12.459Z,93.30
2017-09-26T00:45:39.891Z,93.30
2017-09-26T00:48:07.324Z,93.20
2017-09-26T00:50:35.532Z,93.10
2017-09-26T00:53:03.254Z,93.10
2017-09-26T00:55:30.677Z,93.10
2017-09-26T00:57:58.117Z,93.00
2017-09-26T01:00:25.555Z,93.10
2017-09-26T01:02:52.998Z,93.10
2017-09-26T01:05:31.098Z,93.00
2017-09-26T01:07:59.321Z,92.80
2017-09-26T01:10:26.760Z,92.80
2017-09-26T01:12:54.258Z,92.80
2017-09-26T01:15:21.689Z,92.80
2017-09-26T01:17:49.126Z,92.80
2017-09-26T01:20:16.563Z,92.80
2017-09-26T01:22:44.773Z,92.70
2017-09-26T01:25:12.205Z,92.70
2017-09-26T01:27:39.655Z,92.80
2017-09-26T01:30:07.096Z,92.70
2017-09-26T01:32:34.537Z,92.50
2017-09-26T01:35:01.972Z,92.50
2017-09-26T01:37:29.421Z,92.60
2017-09-26T01:39:56.855Z,92.40
2017-09-26T01:42:24.288Z,92.40
2017-09-26T01:44:52.526Z,92.50
2017-09-26T01:47:19.937Z,92.40
2017-09-26T01:49:47.391Z,92.40
2017-09-26T01:52:15.648Z,92.30
2017-09-26T01:54:43.861Z,92.30
2017-09-26T01:57:12.180Z,92.40
2017-09-26T01:59:42.187Z,92.40
2017-09-26T02:02:09.620Z,92.40
2017-09-26T02:04:37.074Z,92.20
2017-09-26T02:07:04.526Z,92.20
2017-09-26T02:09:31.944Z,92.10
2017-09-26T02:11:59.370Z,92.00
2017-09-26T02:14:26.816Z,92.00
2017-09-26T02:16:54.246Z,92.20
2017-09-26T02:19:21.675Z,92.10
2017-09-26T02:21:49.872Z,92.10
2017-09-26T02:24:17.303Z,92.10
2017-09-26T02:26:45.501Z,92.20
2017-09-26T02:29:12.929Z,92.10
2017-09-26T02:31:40.359Z,92.20
2017-09-26T02:34:07.794Z,92.20
2017-09-26T02:36:35.232Z,92.50
2017-09-26T02:39:02.663Z,92.40
2017-09-26T02:41:30.860Z,92.40
2017-09-26T02:43:58.289Z,92.40
2017-09-26T02:46:26.774Z,92.40
2017-09-26T02:48:54.972Z,92.30
2017-09-26T02:51:22.416Z,92.20
2017-09-26T02:53:50.605Z,92.10
2017-09-26T02:56:18.045Z,92.10
2017-09-26T02:58:46.249Z,92.20
2017-09-26T03:01:13.682Z,91.80
2017-09-26T03:03:41.912Z,92.00
2017-09-26T03:06:09.341Z,92.00
2017-09-26T03:08:36.775Z,92.00
2017-09-26T03:11:04.213Z,92.10
2017-09-26T03:13:32.410Z,92.10
2017-09-26T03:15:59.856Z,92.10
2017-09-26T03:18:28.065Z,92.30
2017-09-26T03:20:55.616Z,92.30
2017-09-26T03:23:23.044Z,92.50
2017-09-26T03:25:51.251Z,92.70
2017-09-26T03:28:18.699Z,92.60
2017-09-26T03:30:46.225Z,92.30
2017-09-26T03:33:14.500Z,92.20
2017-09-26T03:35:42.781Z,92.30
2017-09-26T03:38:10.984Z,92.50
2017-09-26T03:40:38.419Z,92.40
2017-09-26T03:43:05.862Z,92.40
2017-09-26T03:45:33.284Z,92.50
2017-09-26T03:48:00.729Z,92.80
2017-09-26T03:50:28.160Z,92.80
2017-09-26T03:52:55.597Z,92.80
2017-09-26T03:55:23.796Z,92.50
2017-09-26T03:57:51.235Z,92.40
2017-09-26T04:00:19.444Z,92.30
2017-09-26T04:02:46.905Z,92.30
2017-09-26T04:05:15.328Z,92.20
2017-09-26T04:07:42.747Z,92.30
2017-09-26T04:10:10.176Z,92.30
2017-09-26T04:12:37.612Z,92.10
2017-09-26T04:15:05.824Z,92.20
2017-09-26T04:17:33.252Z,92.20
2017-09-26T04:20:00.692Z,92.40
2017-09-26T04:22:28.923Z,92.60
2017-09-26T04:24:56.394Z,92.60
2017-09-26T04:27:23.832Z,93.10
2017-09-26T04:29:51.281Z,93.50
2017-09-26T04:32:18.711Z,93.70
2017-09-26T04:34:47.181Z,94.00
2017-09-26T04:37:15.381Z,94.10
2017-09-26T04:39:42.861Z,94.10
2017-09-26T04:42:10.264Z,94.30
2017-09-26T04:44:39.456Z,94.50
2017-09-26T04:47:06.896Z,94.50
2017-09-26T04:49:34.334Z,94.50
2017-09-26T04:52:01.820Z,94.40
2017-09-26T04:54:30.312Z,94.10
2017-09-26T04:56:57.751Z,94.00
2017-09-26T04:59:25.208Z,94.20
2017-09-26T05:01:52.657Z,94.10
2017-09-26T05:04:20.065Z,94.00
2017-09-26T05:06:47.495Z,94.20
2017-09-26T05:09:14.918Z,94.10
2017-09-26T05:11:42.357Z,94.00
2017-09-26T05:14:09.791Z,94.10
2017-09-26T05:16:37.228Z,94.30
2017-09-26T05:19:05.464Z,94.30
2017-09-26T05:21:32.911Z,94.30
2017-09-26T05:24:00.348Z,94.30
2017-09-26T05:26:27.792Z,94.20
2017-09-26T05:28:55.230Z,94.10
2017-09-26T05:31:23.434Z,93.70
2017-09-26T05:33:50.861Z,93.60
2017-09-26T05:36:19.071Z,93.70
2017-09-26T05:38:46.505Z,93.60
2017-09-26T05:41:15.691Z,93.50
2017-09-26T05:43:43.892Z,93.40
2017-09-26T05:46:11.371Z,93.40
2017-09-26T05:48:38.833Z,93.30
2017-09-26T05:51:06.305Z,93.30
2017-09-26T05:53:33.736Z,93.40
2017-09-26T05:56:01.172Z,93.40
2017-09-26T05:58:28.611Z,93.60
2017-09-26T06:00:56.812Z,93.50
2017-09-26T06:03:24.256Z,93.50
2017-09-26T06:05:51.690Z,93.50
2017-09-26T06:08:19.130Z,93.60
2017-09-26T06:10:46.563Z,93.50
2017-09-26T06:13:14.004Z,93.50
2017-09-26T06:15:41.422Z,93.50
2017-09-26T06:18:08.864Z,93.40
2017-09-26T06:20:36.297Z,93.40
2017-09-26T06:23:03.775Z,93.30
2017-09-26T06:25:31.241Z,93.30
2017-09-26T06:27:58.699Z,93.30
2017-09-26T06:30:26.120Z,93.60
2017-09-26T06:32:53.557Z,93.40
2017-09-26T06:35:20.983Z,93.30
2017-09-26T06:37:49.189Z,93.30
2017-09-26T06:40:16.639Z,93.30
2017-09-26T06:42:44.237Z,93.40
2017-09-26T06:45:11.672Z,93.20
2017-09-26T06:47:39.103Z,93.00
2017-09-26T06:50:10.078Z,93.00
2017-09-26T06:52:37.511Z,93.00
2017-09-26T06:55:05.955Z,92.80
2017-09-26T06:57:33.388Z,92.90
2017-09-26T07:00:00.975Z,92.80
2017-09-26T07:02:29.181Z,92.70
2017-09-26T07:04:56.743Z,92.70
2017-09-26T07:07:24.172Z,92.70
2017-09-26T07:09:52.373Z,92.70
2017-09-26T07:12:19.799Z,92.70
2017-09-26T07:14:47.235Z,92.80
2017-09-26T07:17:14.664Z,93.00
2017-09-26T07:19:42.095Z,92.90
2017-09-26T07:22:09.526Z,93.00
2017-09-26T07:24:36.958Z,93.00
2017-09-26T07:27:10.070Z,92.70
2017-09-26T07:29:38.272Z,92.80
2017-09-26T07:32:05.699Z,92.70
2017-09-26T07:34:33.899Z,92.70
2017-09-26T07:37:01.333Z,92.70
2017-09-26T07:39:29.532Z,92.80
2017-09-26T07:41:56.975Z,92.80
2017-09-26T07:44:25.182Z,92.90
2017-09-26T07:46:52.607Z,92.60
2017-09-26T07:49:20.816Z,92.60
2017-09-26T07:51:48.247Z,92.60
2017-09-26T07:54:15.683Z,92.20
2017-09-26T07:56:43.915Z,92.20
2017-09-26T07:59:11.491Z,92.20
2017-09-26T08:01:38.931Z,92.40
2017-09-26T08:04:06.721Z,91.50
2017-09-26T08:06:34.315Z,91.80
2017-09-26T08:09:03.920Z,91.70
2017-09-26T08:11:32.126Z,91.20
2017-09-26T08:13:59.548Z,91.20
2017-09-26T08:16:26.982Z,91.40
2017-09-26T08:18:54.415Z,91.20
2017-09-26T08:21:21.903Z,91.40
2017-09-26T08:23:49.336Z,91.10
2017-09-26T08:26:16.785Z,90.60
2017-09-26T08:28:44.215Z,90.50
2017-09-26T08:31:11.635Z,91.00
2017-09-26T08:33:39.844Z,90.50
2017-09-26T08:36:07.277Z,90.50
2017-09-26T08:38:35.480Z,90.80
2017-09-26T08:41:02.903Z,90.80
2017-09-26T08:43:31.108Z,90.20
2017-09-26T08:45:58.544Z,90.10
2017-09-26T08:48:26.744Z,90.40
2017-09-26T08:50:54.180Z,90.40
2017-09-26T08:53:22.400Z,90.20
2017-09-26T08:55:49.831Z,90.20
2017-09-26T08:58:17.256Z,89.80
2017-09-26T09:00:44.688Z,90.10
2017-09-26T09:03:12.112Z,89.40
2017-09-26T09:05:39.549Z,89.80
2017-09-26T09:08:06.982Z,90.10
2017-09-26T09:10:34.412Z,89.40
2017-09-26T09:13:01.843Z,90.00
2017-09-26T09:15:29.279Z,88.80
2017-09-26T09:17:56.709Z,87.10
2017-09-26T09:20:24.907Z,86.80
2017-09-26T09:22:52.336Z,86.80
2017-09-26T09:25:20.551Z,85.20
2017-09-26T09:27:47.989Z,85.00
2017-09-26T09:30:15.426Z,86.80
2017-09-26T09:32:43.619Z,84.10
2017-09-26T09:35:12.107Z,84.10
2017-09-26T09:37:39.548Z,85.00
2017-09-26T09:40:07.755Z,81.40
2017-09-26T09:42:35.181Z,81.30
2017-09-26T09:45:02.612Z,80.70
2017-09-26T09:47:30.048Z,80.20
2017-09-26T09:52:28.287Z,76.10
2017-09-26T09:54:55.725Z,75.00
2017-09-26T09:57:23.160Z,74.00
2017-09-26T09:59:50.600Z,73.40
2017-09-26T10:02:18.042Z,74.10
2017-09-26T10:04:45.472Z,73.00
2017-09-26T10:07:12.908Z,72.70
2017-09-26T10:09:41.103Z,71.00
2017-09-26T10:12:08.536Z,71.10
2017-09-26T10:14:35.971Z,70.00
2017-09-26T10:17:03.411Z,69.60
2017-09-26T10:19:30.838Z,71.10
2017-09-26T10:21:58.275Z,70.20
2017-09-26T10:24:26.467Z,70.00
2017-09-26T10:26:53.904Z,70.50
2017-09-26T10:29:22.105Z,67.90
2017-09-26T10:31:51.487Z,67.80
2017-09-26T10:34:19.680Z,68.60
2017-09-26T10:36:47.115Z,68.60
2017-09-26T10:39:15.310Z,69.50
2017-09-26T10:41:42.739Z,68.60
2017-09-26T10:44:10.944Z,66.60
2017-09-26T10:46:38.372Z,65.90
2017-09-26T10:49:06.571Z,64.00
2017-09-26T10:51:34.007Z,64.00
2017-09-26T10:54:02.202Z,65.10
2017-09-26T10:56:29.629Z,65.10
2017-09-26T10:58:57.059Z,65.30
2017-09-26T11:01:24.503Z,64.70
2017-09-26T11:03:51.935Z,64.40
2017-09-26T11:06:19.367Z,64.30
2017-09-26T11:08:47.567Z,66.90
2017-09-26T11:11:16.923Z,66.90
2017-09-26T11:13:44.364Z,66.90
2017-09-26T11:16:11.804Z,67.70
2017-09-26T11:18:39.250Z,69.30
2017-09-26T11:21:06.675Z,68.90
2017-09-26T11:23:34.896Z,68.50
2017-09-26T11:26:02.383Z,68.40
2017-09-26T11:28:29.819Z,68.80
2017-09-26T11:30:57.312Z,69.20
2017-09-26T11:33:25.530Z,70.10
2017-09-26T11:35:52.982Z,70.10
2017-09-26T11:38:20.438Z,70.40
2017-09-26T11:40:47.868Z,69.40
2017-09-26T11:43:16.149Z,71.90
2017-09-26T11:45:44.347Z,71.80
2017-09-26T11:48:11.783Z,71.80
2017-09-26T11:50:39.993Z,71.00
2017-09-26T11:53:07.439Z,71.00
2017-09-26T11:55:34.872Z,72.20
2017-09-26T11:58:02.317Z,71.50
2017-09-26T12:00:30.536Z,72.20
2017-09-26T12:02:57.979Z,72.20
2017-09-26T12:05:25.419Z,71.30
2017-09-26T12:07:52.852Z,70.90
2017-09-26T12:10:21.059Z,73.60
2017-09-26T12:12:54.072Z,73.60
2017-09-26T12:15:21.520Z,72.50
2017-09-26T12:17:48.965Z,71.60
2017-09-26T12:20:16.417Z,72.40
2017-09-26T12:22:43.853Z,71.70
2017-09-26T12:25:12.068Z,73.40
2017-09-26T12:27:39.503Z,73.30
2017-09-26T12:30:06.944Z,71.60
2017-09-26T12:32:35.159Z,71.10
2017-09-26T12:35:02.591Z,71.10
2017-09-26T12:37:30.028Z,70.20
2017-09-26T12:39:58.243Z,70.50
2017-09-26T12:42:25.753Z,70.40
2017-09-26T12:44:53.188Z,69.70
2017-09-26T12:47:20.619Z,70.50
2017-09-26T12:49:48.063Z,72.00
2017-09-26T12:52:17.663Z,73.70
2017-09-26T12:54:45.144Z,70.90
2017-09-26T12:57:12.592Z,73.70
2017-09-26T12:59:40.803Z,74.90
2017-09-26T13:02:09.295Z,75.00
2017-09-26T13:04:37.114Z,74.30
2017-09-26T13:07:04.523Z,71.00
2017-09-26T13:09:34.750Z,70.50
2017-09-26T13:12:02.953Z,70.30
2017-09-26T13:14:30.385Z,70.30
2017-09-26T13:16:58.592Z,70.60
2017-09-26T13:19:26.108Z,70.50
2017-09-26T13:21:55.616Z,71.90
2017-09-26T13:24:23.840Z,71.00
2017-09-26T13:26:51.292Z,70.80
2017-09-26T13:29:18.728Z,71.00
2017-09-26T13:31:46.174Z,72.20
2017-09-26T13:34:14.387Z,69.40
2017-09-26T13:36:41.797Z,69.40
2017-09-26T13:39:09.220Z,70.60
2017-09-26T13:41:36.783Z,71.00
2017-09-26T13:44:04.219Z,71.70
2017-09-26T13:46:31.725Z,72.10
2017-09-26T13:48:59.169Z,73.50
2017-09-26T13:51:30.730Z,72.70
2017-09-26T13:53:58.924Z,74.80
2017-09-26T13:56:27.132Z,71.20
2017-09-26T13:58:54.591Z,71.90
2017-09-26T14:01:22.042Z,73.00
2017-09-26T14:03:49.469Z,74.70
2017-09-26T14:06:16.900Z,74.60
2017-09-26T14:08:44.343Z,69.90
2017-09-26T14:11:11.851Z,72.70
2017-09-26T14:13:40.308Z,72.90
2017-09-26T14:16:16.232Z,72.40
2017-09-26T14:18:43.668Z,69.70
2017-09-26T14:21:18.724Z,73.30
2017-09-26T14:23:46.318Z,72.20
2017-09-26T14:26:14.515Z,68.10
2017-09-26T14:28:41.980Z,68.10
2017-09-26T14:31:09.408Z,69.30
2017-09-26T14:33:37.601Z,68.80
2017-09-26T14:36:08.304Z,68.70
2017-09-26T14:38:35.772Z,68.90
2017-09-26T14:41:05.979Z,70.10
2017-09-26T14:43:33.426Z,70.00
2017-09-26T14:46:00.899Z,70.20
2017-09-26T14:48:28.334Z,69.70
2017-09-26T14:50:55.775Z,68.70
2017-09-26T14:53:27.787Z,70.00
2017-09-26T14:55:55.985Z,69.20
2017-09-26T14:58:23.420Z,69.20
2017-09-26T15:00:51.695Z,68.80
2017-09-26T15:03:19.956Z,69.40
2017-09-26T15:05:47.390Z,69.40
2017-09-26T15:08:14.824Z,70.40
2017-09-26T15:10:42.268Z,70.90
2017-09-26T15:13:12.763Z,68.90
2017-09-26T15:15:40.963Z,68.80
2017-09-26T15:18:08.424Z,68.80
2017-09-26T15:20:36.623Z,70.00
2017-09-26T15:23:04.055Z,69.90
2017-09-26T15:25:34.969Z,68.90
2017-09-26T15:28:03.167Z,69.00
2017-09-26T15:30:30.604Z,69.00
2017-09-26T15:32:58.823Z,68.70
2017-09-26T15:35:26.436Z,68.60
2017-09-26T15:37:54.908Z,68.80
2017-09-26T15:40:22.339Z,69.30
2017-09-26T15:42:49.819Z,70.20
2017-09-26T15:45:18.066Z,69.70
2017-09-26T15:47:51.893Z,69.70
2017-09-26T15:50:19.318Z,69.90
2017-09-26T15:52:46.757Z,69.90
2017-09-26T15:55:17.782Z,70.40
2017-09-26T15:57:45.219Z,69.60
2017-09-26T16:00:12.647Z,70.10
2017-09-26T16:02:40.084Z,70.50
2017-09-26T16:05:07.503Z,71.20
2017-09-26T16:07:35.710Z,71.40
2017-09-26T16:10:03.143Z,71.30
2017-09-26T16:12:30.576Z,71.10
2017-09-26T16:14:58.000Z,71.60
2017-09-26T16:17:25.436Z,74.40
2017-09-26T16:19:52.878Z,74.60
2017-09-26T16:22:21.414Z,77.10
2017-09-26T16:24:48.845Z,77.90
2017-09-26T16:27:16.339Z,78.50
2017-09-26T16:29:43.807Z,78.90
2017-09-26T16:32:11.232Z,79.50
2017-09-26T16:34:38.667Z,79.60
2017-09-26T16:37:06.125Z,79.60
2017-09-26T16:39:33.556Z,79.50
2017-09-26T16:42:00.987Z,79.90
2017-09-26T16:44:29.189Z,79.60
2017-09-26T16:46:58.589Z,79.60
2017-09-26T16:49:26.024Z,80.10
2017-09-26T16:51:54.235Z,81.30
2017-09-26T16:54:21.661Z,81.30
2017-09-26T16:56:49.096Z,81.90
2017-09-26T16:59:16.524Z,82.60
2017-09-26T17:01:43.955Z,83.00
2017-09-26T17:04:11.555Z,83.10
2017-09-26T17:06:49.355Z,82.70
2017-09-26T17:09:16.783Z,82.10
2017-09-26T17:11:44.244Z,82.20
2017-09-26T17:14:11.668Z,82.40
2017-09-26T17:16:39.109Z,82.80
2017-09-26T17:19:07.308Z,83.60
2017-09-26T17:21:34.749Z,83.60
2017-09-26T17:24:02.947Z,84.20
2017-09-26T17:26:30.381Z,84.20
2017-09-26T17:28:58.571Z,84.90
2017-09-26T17:31:26.008Z,84.80
2017-09-26T17:33:54.304Z,85.70
2017-09-26T17:36:21.728Z,85.70
2017-09-26T17:38:49.164Z,86.50
2017-09-26T17:41:17.580Z,86.80
2017-09-26T17:43:45.790Z,87.10
2017-09-26T17:46:13.224Z,87.10
2017-09-26T17:48:40.656Z,86.90
2017-09-26T17:51:08.099Z,87.20
2017-09-26T17:53:35.536Z,87.20
2017-09-26T17:56:02.964Z,87.70
2017-09-26T17:58:30.408Z,88.30
2017-09-26T18:00:57.832Z,88.30
2017-09-26T18:03:25.271Z,89.30
2017-09-26T18:05:52.704Z,88.90
2017-09-26T18:08:26.886Z,89.10
2017-09-26T18:10:54.320Z,88.70
2017-09-26T18:13:21.782Z,89.10
2017-09-26T18:15:49.977Z,90.00
2017-09-26T18:18:17.408Z,89.40
2017-09-26T18:20:44.835Z,89.50
2017-09-26T18:23:12.284Z,89.50
2017-09-26T18:25:39.745Z,89.40
2017-09-26T18:28:07.164Z,89.60
2017-09-26T18:30:34.586Z,89.80
2017-09-26T18:33:02.029Z,90.00
2017-09-26T18:35:29.459Z,90.30
2017-09-26T18:37:56.904Z,90.30
2017-09-26T18:40:24.328Z,90.10
2017-09-26T18:42:53.628Z,90.10
2017-09-26T18:45:21.827Z,90.60
2017-09-26T18:47:49.259Z,90.40
2017-09-26T18:50:17.464Z,90.80
2017-09-26T18:52:44.972Z,90.80
2017-09-26T18:55:12.411Z,90.80
2017-09-26T18:57:39.850Z,91.30
2017-09-26T19:00:07.293Z,91.50
2017-09-26T19:02:34.723Z,91.40
2017-09-26T19:05:02.924Z,91.90
2017-09-26T19:07:30.448Z,91.60
2017-09-26T19:09:57.928Z,91.60
2017-09-26T19:12:26.132Z,91.60
2017-09-26T19:14:54.336Z,91.40
2017-09-26T19:17:21.773Z,91.40
2017-09-26T19:19:49.208Z,91.40
2017-09-26T19:22:16.635Z,91.50
2017-09-26T19:24:44.849Z,91.60
2017-09-26T19:27:12.284Z,91.60
2017-09-26T19:29:39.715Z,91.50
2017-09-26T19:32:07.916Z,91.50
2017-09-26T19:34:35.364Z,91.50
2017-09-26T19:37:03.569Z,91.40
2017-09-26T19:39:32.020Z,91.40
2017-09-26T19:42:00.224Z,91.50
2017-09-26T19:44:27.660Z,91.50
2017-09-26T19:46:55.094Z,91.80
2017-09-26T19:49:23.306Z,91.60
2017-09-26T19:51:50.729Z,91.50
2017-09-26T19:54:18.924Z,91.00
2017-09-26T19:56:46.383Z,91.00
2017-09-26T19:59:13.823Z,90.90
2017-09-26T20:01:42.033Z,91.10
2017-09-26T20:04:09.489Z,91.10
2017-09-26T20:06:36.911Z,90.90
2017-09-26T20:09:05.120Z,90.70
2017-09-26T20:11:32.552Z,90.70
2017-09-26T20:13:59.983Z,90.50
2017-09-26T20:16:28.487Z,90.70
2017-09-26T20:18:56.679Z,90.60
2017-09-26T20:21:24.116Z,90.60
2017-09-26T20:23:51.549Z,90.40
2017-09-26T20:26:18.983Z,90.40
2017-09-26T20:28:46.420Z,90.30
2017-09-26T20:31:13.873Z,90.40
2017-09-26T20:33:41.305Z,90.40
2017-09-26T20:36:08.741Z,90.40
2017-09-26T20:38:36.944Z,90.60
2017-09-26T20:41:04.392Z,90.50
2017-09-26T20:43:32.586Z,90.70
2017-09-26T20:46:00.016Z,90.70
2017-09-26T20:48:27.451Z,90.60
2017-09-26T20:50:54.888Z,90.80
2017-09-26T20:53:22.320Z,90.70
2017-09-26T20:55:50.519Z,90.90
2017-09-26T20:58:17.954Z,90.90
2017-09-26T21:00:45.407Z,90.70
2017-09-26T21:03:12.835Z,90.40
2017-09-26T21:05:40.268Z,90.30
2017-09-26T21:08:07.696Z,90.70
2017-09-26T21:10:35.133Z,90.70
2017-09-26T21:13:02.611Z,90.40
2017-09-26T21:15:30.027Z,91.00
2017-09-26T21:17:57.457Z,91.10
2017-09-26T21:20:24.887Z,91.10
2017-09-26T21:22:52.324Z,91.10
2017-09-26T21:25:19.764Z,91.00
2017-09-26T21:27:47.974Z,91.10
2017-09-26T21:30:15.412Z,91.10
2017-09-26T21:32:42.864Z,91.10
2017-09-26T21:35:10.289Z,91.20
2017-09-26T21:37:38.490Z,91.20
2017-09-26T21:40:06.007Z,91.20
2017-09-26T21:42:34.209Z,91.30
2017-09-26T21:45:01.639Z,91.20
2017-09-26T21:47:29.845Z,91.20
2017-09-26T21:49:57.275Z,91.10
2017-09-26T21:52:25.489Z,91.10
2017-09-26T21:54:52.917Z,91.10
2017-09-26T21:57:20.351Z,91.10
2017-09-26T21:59:47.783Z,91.10
2017-09-26T22:02:15.220Z,91.10
2017-09-26T22:04:42.657Z,91.10
2017-09-26T22:07:10.092Z,91.20
2017-09-26T22:09:37.520Z,91.20
2017-09-26T22:12:04.965Z,91.10
2017-09-26T22:14:32.399Z,91.10
2017-09-26T22:16:59.832Z,91.50
2017-09-26T22:19:27.261Z,91.50
2017-09-26T22:21:54.696Z,91.40
2017-09-26T22:24:22.127Z,91.40
2017-09-26T22:26:49.559Z,91.60
2017-09-26T22:29:17.035Z,91.70
2017-09-26T22:31:44.463Z,92.10
2017-09-26T22:34:12.659Z,92.40
2017-09-26T22:36:40.099Z,92.40
2017-09-26T22:39:07.532Z,92.40
2017-09-26T22:41:34.969Z,92.70
2017-09-26T22:44:02.400Z,92.90
2017-09-26T22:46:29.832Z,93.00
2017-09-26T22:48:57.263Z,92.90
2017-09-26T22:51:25.464Z,93.00
2017-09-26T22:53:52.900Z,93.00
2017-09-26T22:56:21.091Z,93.10
2017-09-26T22:58:48.533Z,93.00
2017-09-26T23:01:16.792Z,93.00
2017-09-26T23:03:44.232Z,93.00
2017-09-26T23:06:11.664Z,93.00
2017-09-26T23:08:39.104Z,93.10
2017-09-26T23:11:06.531Z,93.00
2017-09-26T23:13:34.743Z,92.60
2017-09-26T23:16:02.172Z,92.60
2017-09-26T23:18:30.382Z,92.50
2017-09-26T23:20:57.814Z,92.40
2017-09-26T23:23:26.005Z,92.40
2017-09-26T23:25:53.432Z,92.40
2017-09-26T23:28:21.627Z,92.30
2017-09-26T23:30:49.065Z,92.30
2017-09-26T23:33:17.275Z,92.30
2017-09-26T23:35:44.707Z,92.30
2017-09-26T23:38:12.147Z,92.20
2017-09-26T23:40:40.352Z,92.30
2017-09-26T23:43:07.780Z,92.30
2017-09-26T23:45:35.995Z,92.30
2017-09-26T23:48:03.424Z,92.30
2017-09-26T23:50:31.627Z,92.30
2017-09-26T23:52:59.052Z,92.30
2017-09-26T23:55:27.259Z,92.20
2017-09-26T23:57:54.695Z,92.20
